createdAt,value
2023-04-22T00:00:02.755Z,87.50
2023-04-22T00:02:53.032Z,87.80
2023-04-22T00:05:42.198Z,88.00
2023-04-22T00:08:31.601Z,88.20
2023-04-22T00:11:19.313Z,88.50
2023-04-22T00:14:07.179Z,88.60
2023-04-22T00:16:54.661Z,88.90
2023-04-22T00:19:44.098Z,89.10
2023-04-22T00:22:31.803Z,89.40
2023-04-22T00:25:20.989Z,89.50
2023-04-22T00:28:08.853Z,89.40
2023-04-22T00:30:56.516Z,89.60
2023-04-22T00:33:43.977Z,89.80
2023-04-22T00:36:31.684Z,90.00
2023-04-22T00:39:19.254Z,90.10
2023-04-22T00:42:11.032Z,90.10
2023-04-22T00:44:59.118Z,90.60
2023-04-22T00:47:47.602Z,90.30
2023-04-22T00:50:35.540Z,90.80
2023-04-22T00:53:22.695Z,90.40
2023-04-22T00:56:10.486Z,90.50
2023-04-22T00:59:00.373Z,90.60
2023-04-22T01:01:48.782Z,90.60
2023-04-22T01:04:37.191Z,90.60
2023-04-22T01:07:25.447Z,90.60
2023-04-22T01:10:13.089Z,90.70
2023-04-22T01:13:01.475Z,90.80
2023-04-22T01:15:51.329Z,90.80
2023-04-22T01:18:39.170Z,90.90
2023-04-22T01:21:28.174Z,91.00
2023-04-22T01:24:17.335Z,91.00
2023-04-22T01:27:05.236Z,91.10
2023-04-22T01:29:53.612Z,91.10
2023-04-22T01:32:41.887Z,91.20
2023-04-22T01:35:30.799Z,91.20
2023-04-22T01:38:18.821Z,91.30
2023-04-22T01:41:10.680Z,91.30
2023-04-22T01:44:01.811Z,91.30
2023-04-22T01:46:49.195Z,91.40
2023-04-22T01:49:37.588Z,91.40
2023-04-22T01:52:27.925Z,91.50
2023-04-22T01:55:18.320Z,91.50
2023-04-22T01:58:07.629Z,91.50
2023-04-22T02:00:56.588Z,91.60
2023-04-22T02:03:44.028Z,91.60
2023-04-22T02:06:33.793Z,91.70
2023-04-22T02:09:25.014Z,91.70
2023-04-22T02:12:15.896Z,91.80
2023-04-22T02:15:04.732Z,91.80
2023-04-22T02:17:53.350Z,91.80
2023-04-22T02:20:40.995Z,91.90
2023-04-22T02:23:29.796Z,92.00
2023-04-22T02:26:17.704Z,92.00
2023-04-22T02:29:05.372Z,92.00
2023-04-22T02:31:54.343Z,92.00
2023-04-22T02:34:42.234Z,92.00
2023-04-22T02:37:29.801Z,92.00
2023-04-22T02:40:17.353Z,92.10
2023-04-22T02:43:06.251Z,92.10
2023-04-22T02:45:53.585Z,92.20
2023-04-22T02:48:42.891Z,92.10
2023-04-22T02:51:31.317Z,92.20
2023-04-22T02:54:19.118Z,92.20
2023-04-22T02:57:07.110Z,92.30
2023-04-22T02:59:55.170Z,92.30
2023-04-22T03:02:45.335Z,92.30
2023-04-22T03:05:36.951Z,92.40
2023-04-22T03:08:24.873Z,92.40
2023-04-22T03:11:14.059Z,92.50
2023-04-22T03:14:03.014Z,92.50
2023-04-22T03:16:51.327Z,92.60
2023-04-22T03:19:39.965Z,92.60
2023-04-22T03:22:29.649Z,92.70
2023-04-22T03:25:21.375Z,92.70
2023-04-22T03:28:13.316Z,92.70
2023-04-22T03:31:01.717Z,92.80
2023-04-22T03:33:49.963Z,92.80
2023-04-22T03:36:46.529Z,92.90
2023-04-22T03:39:35.976Z,92.90
2023-04-22T03:42:23.550Z,92.90
2023-04-22T03:45:12.964Z,92.90
2023-04-22T03:48:07.138Z,93.00
2023-04-22T03:51:03.984Z,93.10
2023-04-22T03:53:55.984Z,93.10
2023-04-22T03:56:48.027Z,93.10
2023-04-22T03:59:36.385Z,93.10
2023-04-22T04:02:23.842Z,93.20
2023-04-22T04:05:12.668Z,93.30
2023-04-22T04:08:01.499Z,93.40
2023-04-22T04:10:51.419Z,93.40
2023-04-22T04:13:40.648Z,93.40
2023-04-22T04:16:39.294Z,93.40
2023-04-22T04:19:32.408Z,93.40
2023-04-22T04:22:21.086Z,93.20
2023-04-22T04:25:18.705Z,93.40
2023-04-22T04:28:09.901Z,93.40
2023-04-22T04:30:59.515Z,93.40
2023-04-22T04:33:48.258Z,93.50
2023-04-22T04:36:35.751Z,93.50
2023-04-22T04:39:34.178Z,93.50
2023-04-22T04:42:24.648Z,93.60
2023-04-22T04:45:20.520Z,94.00
2023-04-22T04:48:10.936Z,93.60
2023-04-22T04:51:01.987Z,93.70
2023-04-22T04:53:53.358Z,93.70
2023-04-22T04:56:41.763Z,93.70
2023-04-22T04:59:30.704Z,93.70
2023-04-22T05:02:18.967Z,93.80
2023-04-22T05:05:09.803Z,93.80
2023-04-22T05:07:58.760Z,93.90
2023-04-22T05:10:47.373Z,93.90
2023-04-22T05:13:36.262Z,93.90
2023-04-22T05:16:24.773Z,93.90
2023-04-22T05:19:12.546Z,94.00
2023-04-22T05:22:02.253Z,94.00
2023-04-22T05:24:51.305Z,94.00
2023-04-22T05:27:40.390Z,93.80
2023-04-22T05:30:28.155Z,93.90
2023-04-22T05:33:18.203Z,93.70
2023-04-22T05:36:13.583Z,93.50
2023-04-22T05:39:10.988Z,93.40
2023-04-22T05:42:12.458Z,93.20
2023-04-22T05:45:06.679Z,93.00
2023-04-22T05:48:02.662Z,92.70
2023-04-22T05:50:59.928Z,92.30
2023-04-22T05:53:59.300Z,92.00
2023-04-22T05:56:49.087Z,91.70
2023-04-22T05:59:37.184Z,91.10
2023-04-22T06:02:25.619Z,91.00
2023-04-22T06:05:13.906Z,90.60
2023-04-22T06:08:01.914Z,90.00
2023-04-22T06:10:52.149Z,89.10
2023-04-22T06:13:42.612Z,88.40
2023-04-22T06:16:31.148Z,87.70
2023-04-22T06:19:19.742Z,86.70
2023-04-22T06:22:08.021Z,85.90
2023-04-22T06:24:55.353Z,85.40
2023-04-22T06:27:43.139Z,84.50
2023-04-22T06:30:34.136Z,83.60
2023-04-22T06:33:21.910Z,82.20
2023-04-22T06:36:11.573Z,81.40
2023-04-22T06:39:00.235Z,80.70
2023-04-22T06:42:01.938Z,80.00
2023-04-22T06:45:06.010Z,79.00
2023-04-22T06:48:01.987Z,78.40
2023-04-22T06:51:05.976Z,77.20
2023-04-22T06:53:54.046Z,76.30
2023-04-22T06:56:41.667Z,75.20
2023-04-22T06:59:29.469Z,74.30
2023-04-22T07:02:17.807Z,73.40
2023-04-22T07:05:07.721Z,72.80
2023-04-22T07:07:55.525Z,71.70
2023-04-22T07:10:44.850Z,71.10
2023-04-22T07:13:52.551Z,70.10
2023-04-22T07:16:41.271Z,70.20
2023-04-22T07:19:28.932Z,69.30
2023-04-22T07:22:18.100Z,68.50
2023-04-22T07:25:07.533Z,67.70
2023-04-22T07:27:55.215Z,66.90
2023-04-22T07:30:43.391Z,66.10
2023-04-22T07:33:31.190Z,64.60
2023-04-22T07:36:33.548Z,63.70
2023-04-22T07:39:29.742Z,62.80
2023-04-22T07:42:20.094Z,62.80
2023-04-22T07:45:18.910Z,61.50
2023-04-22T07:48:11.144Z,63.00
2023-04-22T07:51:01.399Z,60.10
2023-04-22T07:53:56.860Z,60.50
2023-04-22T07:56:56.098Z,59.70
2023-04-22T07:59:52.396Z,59.00
2023-04-22T08:02:47.688Z,59.00
2023-04-22T08:05:41.366Z,57.80
2023-04-22T08:08:31.730Z,56.40
2023-04-22T08:11:27.544Z,55.80
2023-04-22T08:14:21.576Z,54.20
2023-04-22T08:17:15.547Z,54.20
2023-04-22T08:20:11.297Z,50.90
2023-04-22T08:23:03.323Z,47.70
2023-04-22T08:25:57.001Z,46.80
2023-04-22T08:28:49.697Z,44.00
2023-04-22T08:31:46.549Z,41.40
2023-04-22T08:34:40.950Z,40.60
2023-04-22T08:37:32.093Z,36.30
2023-04-22T08:40:22.792Z,34.40
2023-04-22T08:43:13.272Z,32.60
2023-04-22T08:46:03.344Z,30.60
2023-04-22T08:49:05.098Z,28.80
2023-04-22T08:51:56.744Z,27.60
2023-04-22T08:57:38.641Z,26.20
2023-04-22T09:00:32.068Z,26.80
2023-04-22T09:03:21.711Z,27.40
2023-04-22T09:06:16.727Z,27.40
2023-04-22T09:09:14.727Z,27.10
2023-04-22T09:12:28.440Z,27.70
2023-04-22T09:15:25.141Z,26.90
2023-04-22T09:18:16.734Z,26.30
2023-04-22T09:21:10.794Z,26.00
2023-04-22T09:24:07.163Z,24.40
2023-04-22T09:26:59.321Z,23.60
2023-04-22T09:29:52.706Z,24.00
2023-04-22T09:32:55.804Z,24.00
2023-04-22T09:35:50.359Z,24.10
2023-04-22T09:38:40.842Z,24.50
2023-04-22T09:41:39.947Z,24.60
2023-04-22T09:44:33.843Z,23.70
2023-04-22T09:47:31.042Z,24.00
2023-04-22T09:50:30.176Z,23.70
2023-04-22T09:53:22.465Z,22.90
2023-04-22T09:56:16.193Z,22.80
2023-04-22T10:02:08.519Z,22.10
2023-04-22T10:05:09.023Z,22.20
2023-04-22T10:08:00.598Z,21.30
2023-04-22T10:10:58.393Z,21.00
2023-04-22T10:13:49.311Z,21.80
2023-04-22T10:16:42.163Z,22.40
2023-04-22T10:19:31.110Z,22.10
2023-04-22T10:22:26.190Z,23.40
2023-04-22T10:25:27.909Z,25.50
2023-04-22T10:28:19.891Z,26.60
2023-04-22T10:31:24.922Z,26.90
2023-04-22T10:34:24.430Z,27.80
2023-04-22T10:37:26.298Z,28.30
2023-04-22T10:40:18.724Z,30.70
2023-04-22T10:43:06.803Z,31.10
2023-04-22T10:45:59.243Z,32.30
2023-04-22T10:48:57.486Z,34.30
2023-04-22T10:51:53.160Z,33.70
2023-04-22T10:55:05.233Z,34.70
2023-04-22T10:57:54.120Z,36.20
2023-04-22T11:00:53.364Z,37.20
2023-04-22T11:03:48.073Z,38.50
2023-04-22T11:06:43.137Z,37.70
2023-04-22T11:09:37.921Z,37.10
2023-04-22T11:12:51.211Z,37.70
2023-04-22T11:15:46.302Z,38.10
2023-04-22T11:18:37.333Z,39.70
2023-04-22T11:21:34.801Z,39.60
2023-04-22T11:24:26.127Z,40.80
2023-04-22T11:27:34.676Z,40.60
2023-04-22T11:30:32.096Z,39.60
2023-04-22T11:33:24.473Z,41.50
2023-04-22T11:36:20.503Z,39.00
2023-04-22T11:39:15.540Z,38.00
2023-04-22T11:42:04.325Z,37.70
2023-04-22T11:44:54.548Z,38.20
2023-04-22T11:47:43.718Z,37.60
2023-04-22T11:50:33.637Z,37.40
2023-04-22T11:53:24.424Z,36.90
2023-04-22T11:56:11.912Z,37.00
2023-04-22T11:59:00.147Z,36.70
2023-04-22T12:01:50.856Z,37.60
2023-04-22T12:04:40.079Z,40.00
2023-04-22T12:07:29.549Z,38.10
2023-04-22T12:10:17.956Z,38.50
2023-04-22T12:13:06.002Z,37.30
2023-04-22T12:15:57.686Z,37.70
2023-04-22T12:18:52.801Z,37.60
2023-04-22T12:21:44.381Z,37.30
2023-04-22T12:24:32.401Z,36.80
2023-04-22T12:27:20.156Z,37.20
2023-04-22T12:30:08.887Z,36.20
2023-04-22T12:32:56.767Z,35.70
2023-04-22T12:35:47.573Z,36.70
2023-04-22T12:38:36.736Z,36.50
2023-04-22T12:41:24.626Z,36.00
2023-04-22T12:44:12.961Z,36.50
2023-04-22T12:47:01.897Z,38.20
2023-04-22T12:49:50.191Z,36.80
2023-04-22T12:52:39.919Z,36.50
2023-04-22T12:55:28.576Z,37.60
2023-04-22T12:58:16.890Z,38.40
2023-04-22T13:01:04.684Z,37.00
2023-04-22T13:03:53.883Z,36.20
2023-04-22T13:06:44.092Z,35.40
2023-04-22T13:09:34.009Z,36.30
2023-04-22T13:12:22.112Z,39.40
2023-04-22T13:15:12.021Z,36.90
2023-04-22T13:18:00.403Z,36.90
2023-04-22T13:20:48.703Z,36.40
2023-04-22T13:23:36.602Z,37.50
2023-04-22T13:26:26.225Z,37.40
2023-04-22T13:29:14.571Z,36.40
2023-04-22T13:32:03.698Z,37.60
2023-04-22T13:34:51.566Z,36.90
2023-04-22T13:37:39.506Z,36.80
2023-04-22T13:40:28.340Z,36.40
2023-04-22T13:43:18.742Z,36.20
2023-04-22T13:46:07.144Z,36.10
2023-04-22T13:48:56.911Z,37.90
2023-04-22T13:51:45.329Z,37.60
2023-04-22T13:54:33.724Z,38.00
2023-04-22T13:57:24.588Z,37.60
2023-04-22T14:00:15.415Z,36.30
2023-04-22T14:03:03.759Z,36.10
2023-04-22T14:05:53.496Z,36.20
2023-04-22T14:08:41.357Z,36.60
2023-04-22T14:11:30.598Z,36.90
2023-04-22T14:14:20.893Z,36.60
2023-04-22T14:17:12.210Z,37.90
2023-04-22T14:20:00.220Z,36.70
2023-04-22T14:22:49.957Z,36.60
2023-04-22T14:25:38.022Z,38.50
2023-04-22T14:28:26.649Z,37.30
2023-04-22T14:31:15.497Z,38.70
2023-04-22T14:34:05.059Z,38.70
2023-04-22T14:36:53.011Z,40.30
2023-04-22T14:39:41.602Z,38.60
2023-04-22T14:42:30.337Z,37.60
2023-04-22T14:45:19.478Z,38.70
2023-04-22T14:48:08.225Z,38.40
2023-04-22T14:50:57.847Z,38.90
2023-04-22T14:53:45.516Z,38.70
2023-04-22T14:56:33.620Z,38.60
2023-04-22T14:59:24.305Z,38.50
2023-04-22T15:02:18.495Z,38.60
2023-04-22T15:05:06.801Z,39.50
2023-04-22T15:07:59.079Z,39.40
2023-04-22T15:10:47.295Z,39.10
2023-04-22T15:13:36.458Z,40.00
2023-04-22T15:16:24.234Z,41.00
2023-04-22T15:19:12.273Z,40.90
2023-04-22T15:22:00.254Z,40.20
2023-04-22T15:24:50.151Z,40.40
2023-04-22T15:27:39.204Z,40.40
2023-04-22T15:30:27.588Z,40.50
2023-04-22T15:33:15.571Z,40.40
2023-04-22T15:36:07.334Z,40.60
2023-04-22T15:38:57.662Z,40.80
2023-04-22T15:41:48.813Z,40.70
2023-04-22T15:44:36.734Z,41.20
2023-04-22T15:47:24.847Z,40.80
2023-04-22T15:50:13.119Z,40.80
2023-04-22T15:53:01.617Z,41.90
2023-04-22T15:55:50.128Z,41.50
2023-04-22T15:58:40.114Z,40.90
2023-04-22T16:01:28.261Z,41.10
2023-04-22T16:04:16.521Z,41.50
2023-04-22T16:07:06.316Z,41.50
2023-04-22T16:09:54.407Z,41.60
2023-04-22T16:12:44.060Z,41.60
2023-04-22T16:15:33.807Z,42.40
2023-04-22T16:18:21.968Z,41.90
2023-04-22T16:21:10.861Z,41.90
2023-04-22T16:23:59.393Z,41.90
2023-04-22T16:26:47.848Z,42.60
2023-04-22T16:29:35.913Z,42.20
2023-04-22T16:32:25.475Z,43.40
2023-04-22T16:35:15.575Z,42.60
2023-04-22T16:38:03.550Z,43.20
2023-04-22T16:40:54.614Z,44.10
2023-04-22T16:43:43.129Z,44.10
2023-04-22T16:46:31.005Z,43.10
2023-04-22T16:49:20.462Z,43.20
2023-04-22T16:52:08.611Z,43.00
2023-04-22T16:54:57.384Z,43.30
2023-04-22T16:57:47.958Z,43.60
2023-04-22T17:00:36.113Z,43.30
2023-04-22T17:03:24.271Z,43.40
2023-04-22T17:06:13.794Z,43.60
2023-04-22T17:09:01.451Z,43.60
2023-04-22T17:11:49.588Z,44.10
2023-04-22T17:14:38.008Z,43.80
2023-04-22T17:17:27.282Z,44.50
2023-04-22T17:20:15.336Z,44.30
2023-04-22T17:23:05.612Z,44.40
2023-04-22T17:25:53.650Z,44.40
2023-04-22T17:28:41.440Z,44.50
2023-04-22T17:31:29.926Z,44.60
2023-04-22T17:34:18.074Z,44.70
2023-04-22T17:37:06.672Z,44.80
2023-04-22T17:39:57.371Z,45.20
2023-04-22T17:42:46.506Z,46.50
2023-04-22T17:45:37.185Z,48.90
2023-04-22T17:48:25.212Z,47.90
2023-04-22T17:51:13.256Z,49.60
2023-04-22T17:56:53.002Z,48.90
2023-04-22T17:59:41.493Z,50.00
2023-04-22T18:02:29.306Z,48.90
2023-04-22T18:05:17.812Z,49.20
2023-04-22T18:08:05.696Z,51.10
2023-04-22T18:10:53.908Z,50.20
2023-04-22T18:13:45.243Z,50.20
2023-04-22T18:16:33.076Z,51.70
2023-04-22T18:19:20.874Z,52.30
2023-04-22T18:22:08.579Z,53.50
2023-04-22T18:24:59.203Z,52.40
2023-04-22T18:27:47.967Z,53.30
2023-04-22T18:30:37.215Z,53.70
2023-04-22T18:33:25.081Z,54.80
2023-04-22T18:36:12.584Z,55.50
2023-04-22T18:39:00.396Z,55.60
2023-04-22T18:41:49.041Z,56.10
2023-04-22T18:44:37.253Z,55.40
2023-04-22T18:47:26.877Z,57.40
2023-04-22T18:50:14.705Z,57.90
2023-04-22T18:53:02.732Z,58.60
2023-04-22T18:55:50.400Z,58.40
2023-04-22T18:58:38.141Z,59.30
2023-04-22T19:01:25.839Z,59.40
2023-04-22T19:04:15.254Z,59.10
2023-04-22T19:07:03.698Z,59.90
2023-04-22T19:09:51.339Z,60.90
2023-04-22T19:12:39.179Z,59.80
2023-04-22T19:15:27.019Z,61.50
2023-04-22T19:18:15.074Z,61.60
2023-04-22T19:21:04.407Z,60.70
2023-04-22T21:59:22.055Z,67.30
2023-04-22T22:02:09.897Z,68.60
2023-04-22T22:04:57.573Z,69.10
2023-04-22T22:07:46.249Z,69.10
2023-04-22T22:10:35.845Z,69.70
2023-04-22T22:13:23.436Z,70.20
2023-04-22T22:16:12.074Z,70.60
2023-04-22T22:19:02.930Z,70.80
2023-04-22T22:21:50.972Z,70.60
2023-04-22T22:24:38.887Z,70.50
2023-04-22T22:27:28.657Z,70.60
2023-04-22T22:30:18.302Z,70.80
2023-04-22T22:33:05.948Z,71.80
2023-04-22T22:35:53.815Z,72.00
2023-04-22T22:38:41.265Z,72.00
2023-04-22T22:41:28.555Z,72.10
2023-04-22T22:44:17.720Z,72.30
2023-04-22T22:47:06.234Z,71.80
2023-04-22T22:49:54.452Z,72.90
2023-04-22T22:52:42.305Z,73.30
2023-04-22T22:55:30.001Z,74.00
2023-04-22T22:58:18.011Z,74.30
2023-04-22T23:01:07.508Z,74.60
2023-04-22T23:03:55.583Z,74.80
2023-04-22T23:06:43.705Z,75.00
2023-04-22T23:09:31.227Z,74.50
2023-04-22T23:12:18.639Z,75.50
2023-04-22T23:15:07.889Z,75.80
2023-04-22T23:17:57.409Z,76.00
2023-04-22T23:20:45.657Z,75.60
2023-04-22T23:23:34.375Z,74.90
2023-04-22T23:26:22.248Z,74.80
2023-04-22T23:29:10.526Z,74.60
2023-04-22T23:31:58.562Z,74.40
2023-04-22T23:34:51.285Z,74.30
2023-04-22T23:37:39.666Z,74.30
2023-04-22T23:40:27.449Z,75.80
2023-04-22T23:43:15.397Z,76.00
2023-04-22T23:46:03.590Z,76.80
2023-04-22T23:48:51.226Z,77.00
2023-04-22T23:51:40.542Z,76.10
2023-04-22T23:54:28.733Z,77.00
2023-04-22T23:57:17.936Z,76.40
